Time;durP1;ratioP1;P1;durP2;ratioP2;P2;SDS_P1;SDS_P2;PMS_P1;PMS_P2;Temp;Humidity;BMP_temperature;BMP_pressure;BME280_temperature;BME280_humidity;BME280_pressure;Samples;Min_cycle;Max_cycle;Signal;HPM_P1;HPM_P2
2022/09/14 00:01:30;;;;;;;8.10;1.27;;;15.60;99.90;;;;;;5100677;27;37617;-60
2022/09/14 00:03:59;;;;;;;5.25;1.48;;;15.60;99.90;;;;;;5101194;27;38102;-60
2022/09/14 00:06:29;;;;;;;6.18;1.40;;;15.60;99.90;;;;;;5097969;27;38786;-60
2022/09/14 00:08:59;;;;;;;4.47;1.40;;;15.70;99.90;;;;;;5102463;27;36709;-60
2022/09/14 00:11:29;;;;;;;6.63;1.33;;;15.70;99.90;;;;;;5100688;27;37152;-60
2022/09/14 00:13:58;;;;;;;5.18;1.38;;;15.70;99.90;;;;;;5103471;27;38752;-61
2022/09/14 00:16:28;;;;;;;8.70;1.70;;;15.70;99.90;;;;;;5102701;27;39711;-60
2022/09/14 00:18:57;;;;;;;6.60;1.40;;;15.70;99.90;;;;;;5102128;27;36384;-61
2022/09/14 00:21:25;;;;;;;7.07;1.50;;;15.80;99.90;;;;;;5101324;27;37543;-60
2022/09/14 00:23:54;;;;;;;8.25;1.30;;;15.80;99.90;;;;;;5102007;27;39049;-60
2022/09/14 00:26:23;;;;;;;5.25;1.20;;;15.80;99.90;;;;;;5103408;27;37543;-58
2022/09/14 00:28:52;;;;;;;4.20;1.30;;;15.80;99.90;;;;;;5101201;27;35347;-58
2022/09/14 00:31:21;;;;;;;6.55;1.23;;;15.80;99.90;;;;;;5100916;27;39599;-58
2022/09/14 00:33:49;;;;;;;5.03;1.35;;;15.80;99.90;;;;;;5102481;27;39111;-58
2022/09/14 00:36:19;;;;;;;9.00;1.80;;;15.80;99.90;;;;;;5102210;27;38636;-58
2022/09/14 00:38:47;;;;;;;5.38;1.30;;;15.80;99.90;;;;;;5101324;27;35310;-58
2022/09/14 00:41:19;;;;;;;6.07;1.20;;;15.70;99.90;;;;;;5102317;27;37062;-58
2022/09/14 00:43:55;;;;;;;7.70;1.55;;;15.80;99.90;;;;;;5100824;27;37033;-58
2022/09/14 00:46:23;;;;;;;6.57;1.17;;;15.70;99.90;;;;;;5102079;27;39086;-58
2022/09/14 00:48:51;;;;;;;6.35;1.80;;;15.70;99.90;;;;;;5101110;27;36619;-58
2022/09/14 00:51:21;;;;;;;4.85;1.13;;;15.70;99.90;;;;;;5101151;27;37498;-58
2022/09/14 00:53:48;;;;;;;4.20;1.15;;;15.70;99.90;;;;;;5100128;27;37049;-58
2022/09/14 00:56:18;;;;;;;7.35;2.35;;;15.70;99.90;;;;;;5100659;27;37707;-58
2022/09/14 00:58:49;;;;;;;8.60;1.50;;;15.70;99.90;;;;;;5102720;27;36346;-58
2022/09/14 01:01:16;;;;;;;7.65;1.60;;;15.60;99.90;;;;;;5102079;27;38175;-58
2022/09/14 01:03:44;;;;;;;5.35;1.10;;;15.60;99.90;;;;;;5097958;27;37010;-58
2022/09/14 01:06:19;;;;;;;13.30;1.95;;;15.50;99.90;;;;;;5102534;27;39204;-58
2022/09/14 01:09:04;;;;;;;6.18;1.60;;;15.50;99.90;;;;;;5102633;27;35272;-58
2022/09/14 01:11:45;;;;;;;5.47;1.33;;;15.50;99.90;;;;;;5100864;27;37682;-58
2022/09/14 01:14:20;;;;;;;10.02;1.85;;;15.40;99.90;;;;;;5102188;27;38137;-58
2022/09/14 01:16:55;;;;;;;8.13;1.60;;;15.40;99.90;;;;;;5101642;27;38258;-58
2022/09/14 01:19:27;;;;;;;10.23;2.17;;;15.40;99.90;;;;;;5101672;27;36638;-57
2022/09/14 01:21:57;;;;;;;6.53;1.55;;;15.40;99.90;;;;;;5100906;27;36445;-58
2022/09/14 01:24:31;;;;;;;5.75;1.70;;;15.40;99.90;;;;;;5099117;27;38171;-58
2022/09/14 01:27:28;;;;;;;7.45;1.67;;;15.40;99.90;;;;;;5103635;27;36547;-58
2022/09/14 01:30:02;;;;;;;4.97;1.60;;;15.30;99.90;;;;;;5103343;27;36759;-58
2022/09/14 01:32:34;;;;;;;6.55;1.75;;;15.40;99.90;;;;;;5103929;27;38231;-58
2022/09/14 01:35:05;;;;;;;7.18;2.47;;;15.40;99.90;;;;;;5106033;27;40617;-58
2022/09/14 01:37:38;;;;;;;4.38;1.25;;;15.40;99.90;;;;;;5105829;27;38667;-58
2022/09/14 01:40:09;;;;;;;5.93;1.42;;;15.40;99.90;;;;;;5104530;27;37494;-58
2022/09/14 01:42:41;;;;;;;7.70;1.40;;;15.40;99.90;;;;;;5106097;27;37693;-58
2022/09/14 01:45:12;;;;;;;7.50;1.58;;;15.50;99.90;;;;;;5104614;27;37498;-58
2022/09/14 01:47:45;;;;;;;4.35;1.40;;;15.50;99.90;;;;;;5104023;27;38648;-58
2022/09/14 01:50:17;;;;;;;4.72;1.50;;;15.40;99.90;;;;;;5103420;27;36524;-59
2022/09/14 01:52:48;;;;;;;7.15;1.80;;;15.50;99.90;;;;;;5103788;27;38280;-58
2022/09/14 01:55:20;;;;;;;6.70;2.08;;;15.50;99.90;;;;;;5105767;27;38283;-58
2022/09/14 01:57:53;;;;;;;8.52;2.08;;;15.50;99.90;;;;;;5104251;27;37769;-58
2022/09/14 02:00:21;;;;;;;;;;;15.50;99.90;;;;;;5106232;27;37975;-58
2022/09/14 02:02:52;;;;;;;5.65;1.48;;;15.50;99.90;;;;;;5104577;27;37516;-58
2022/09/14 02:05:28;;;;;;;5.47;1.70;;;15.50;99.90;;;;;;5104075;27;38120;-58
2022/09/14 02:07:56;;;;;;;4.88;1.67;;;15.60;99.90;;;;;;5104089;27;37505;-58
2022/09/14 02:10:24;;;;;;;7.07;1.77;;;15.50;99.90;;;;;;5104058;27;36790;-58
2022/09/14 02:12:53;;;;;;;4.82;1.70;;;15.60;99.90;;;;;;5105889;27;37692;-58
2022/09/14 02:15:22;;;;;;;7.40;2.30;;;15.50;99.90;;;;;;5104478;27;38127;-58
2022/09/14 02:17:49;;;;;;;7.38;1.90;;;15.60;99.90;;;;;;5103892;27;40054;-58
2022/09/14 02:20:22;;;;;;;6.25;2.45;;;15.60;99.90;;;;;;5102391;27;36094;-58
2022/09/14 02:22:51;;;;;;;6.75;1.70;;;15.60;99.90;;;;;;5101941;27;36527;-58
2022/09/14 02:25:20;;;;;;;5.72;1.73;;;15.60;99.90;;;;;;5102849;27;38148;-58
2022/09/14 02:27:48;;;;;;;5.85;1.88;;;15.60;99.90;;;;;;5098211;27;37591;-58
2022/09/14 02:30:19;;;;;;;8.88;2.17;;;15.60;99.90;;;;;;5102860;27;37180;-58
2022/09/14 02:32:59;;;;;;;6.78;1.83;;;15.60;99.90;;;;;;5104397;27;37069;-58
2022/09/14 02:35:33;;;;;;;6.40;1.98;;;15.70;99.90;;;;;;5104535;27;38159;-58
2022/09/14 02:38:08;;;;;;;4.65;1.90;;;15.70;99.90;;;;;;5102474;27;37757;-58
2022/09/14 02:40:39;;;;;;;5.28;1.73;;;15.70;99.90;;;;;;5104367;27;38698;-58
2022/09/14 02:43:18;;;;;;;7.50;1.95;;;15.70;99.90;;;;;;5104503;27;38170;-58
2022/09/14 02:45:56;;;;;;;5.15;1.67;;;15.70;99.90;;;;;;5104547;27;37157;-58
2022/09/14 02:48:33;;;;;;;8.20;2.00;;;15.70;99.90;;;;;;5103699;27;36609;-58
2022/09/14 02:51:08;;;;;;;3.88;1.95;;;15.70;99.90;;;;;;5102728;27;35577;-58
2022/09/14 02:53:42;;;;;;;6.32;2.50;;;15.70;99.90;;;;;;5103192;27;38713;-58
2022/09/14 02:56:11;;;;;;;4.88;1.70;;;15.70;99.90;;;;;;5101108;27;36810;-58
2022/09/14 02:58:40;;;;;;;6.75;2.17;;;15.70;99.90;;;;;;5103932;27;36444;-58
2022/09/14 03:01:12;;;;;;;5.70;1.88;;;15.70;99.90;;;;;;5104899;27;36529;-58
2022/09/14 03:03:39;;;;;;;7.80;1.90;;;15.70;99.90;;;;;;5103160;27;38713;-58
2022/09/14 03:06:07;;;;;;;6.78;1.92;;;15.70;99.90;;;;;;5103752;27;39928;-58
2022/09/14 03:08:35;;;;;;;8.95;2.30;;;15.70;99.90;;;;;;5102957;27;37217;-58
2022/09/14 03:11:02;;;;;;;5.63;2.05;;;15.70;99.90;;;;;;5101791;27;36410;-58
2022/09/14 03:13:30;;;;;;;9.32;2.25;;;15.70;99.90;;;;;;5103891;27;37294;-57
2022/09/14 03:15:57;;;;;;;6.40;2.00;;;15.70;99.90;;;;;;5104079;27;40473;-57
2022/09/14 03:18:25;;;;;;;6.15;1.83;;;15.70;99.90;;;;;;5104249;27;37807;-57
2022/09/14 03:20:53;;;;;;;6.40;2.15;;;15.70;99.90;;;;;;5104566;27;37368;-58
2022/09/14 03:23:20;;;;;;;8.20;1.90;;;15.70;99.90;;;;;;5103459;27;36142;-57
2022/09/14 03:25:47;;;;;;;5.93;2.13;;;15.70;99.90;;;;;;5104359;27;38050;-58
2022/09/14 03:28:15;;;;;;;3.85;1.90;;;15.60;99.90;;;;;;5102152;27;37813;-58
2022/09/14 03:30:42;;;;;;;7.68;2.58;;;15.70;99.90;;;;;;5101261;27;36441;-57
2022/09/14 03:33:09;;;;;;;10.35;2.40;;;15.70;99.90;;;;;;5104166;27;37442;-58
2022/09/14 03:35:38;;;;;;;6.35;2.05;;;15.70;99.90;;;;;;5103557;27;37124;-58
2022/09/14 03:38:05;;;;;;;6.57;2.42;;;15.70;99.90;;;;;;5102642;27;37712;-58
2022/09/14 03:40:33;;;;;;;6.70;2.47;;;15.70;99.90;;;;;;5101876;27;36456;-58
2022/09/14 03:43:00;;;;;;;5.55;2.05;;;15.70;99.90;;;;;;5101499;27;39608;-58
2022/09/14 03:45:27;;;;;;;13.32;3.05;;;15.70;99.90;;;;;;5103919;27;36837;-58
2022/09/14 03:47:54;;;;;;;7.35;1.98;;;15.70;99.90;;;;;;5103782;27;37859;-58
2022/09/14 03:50:22;;;;;;;6.13;2.42;;;15.70;99.90;;;;;;5100809;27;36430;-58
2022/09/14 03:52:50;;;;;;;6.18;2.53;;;15.70;99.90;;;;;;5101718;27;37394;-58
2022/09/14 03:55:18;;;;;;;5.00;1.88;;;15.70;99.90;;;;;;5102498;27;41110;-57
2022/09/14 03:57:45;;;;;;;8.02;2.42;;;15.70;99.90;;;;;;5102542;27;37841;-58
2022/09/14 04:00:13;;;;;;;7.80;2.65;;;15.70;99.90;;;;;;5103128;27;36616;-57
2022/09/14 04:02:40;;;;;;;9.45;2.22;;;15.70;99.90;;;;;;5102558;27;36256;-58
2022/09/14 04:05:08;;;;;;;4.82;2.28;;;15.70;99.90;;;;;;5101840;27;38432;-58
2022/09/14 04:07:36;;;;;;;6.78;1.90;;;15.70;99.90;;;;;;5102674;27;37665;-57
2022/09/14 04:10:06;;;;;;;6.43;2.25;;;15.70;99.90;;;;;;5102808;27;34244;-57
2022/09/14 04:12:35;;;;;;;8.07;2.53;;;15.70;99.90;;;;;;5103812;27;37017;-57
2022/09/14 04:15:02;;;;;;;6.05;1.80;;;15.70;99.90;;;;;;5103059;27;38343;-57
2022/09/14 04:17:30;;;;;;;7.20;2.60;;;15.70;99.90;;;;;;5101543;27;37851;-58
2022/09/14 04:19:57;;;;;;;8.13;2.42;;;15.70;99.90;;;;;;5102298;27;35461;-58
2022/09/14 04:22:24;;;;;;;4.60;2.20;;;15.70;99.90;;;;;;5102835;27;37650;-58
2022/09/14 04:24:53;;;;;;;6.35;2.10;;;15.80;99.90;;;;;;5102527;27;38117;-58
2022/09/14 04:27:22;;;;;;;5.85;1.88;;;15.80;99.90;;;;;;5104004;27;38313;-58
2022/09/14 04:29:49;;;;;;;6.38;2.20;;;15.80;99.90;;;;;;5102301;27;37306;-58
2022/09/14 04:32:17;;;;;;;6.93;1.98;;;15.80;99.90;;;;;;5100810;27;36245;-58
2022/09/14 04:34:44;;;;;;;7.25;2.10;;;15.80;99.90;;;;;;5101542;27;38052;-58
2022/09/14 04:37:12;;;;;;;5.55;1.55;;;15.80;99.90;;;;;;5101521;27;38488;-58
2022/09/14 04:39:39;;;;;;;5.65;2.05;;;15.70;99.90;;;;;;5102701;27;38077;-57
2022/09/14 04:42:07;;;;;;;7.45;1.90;;;15.70;99.90;;;;;;5103235;27;39010;-57
2022/09/14 04:44:35;;;;;;;5.68;1.90;;;15.70;99.90;;;;;;5101682;27;38063;-58
2022/09/14 04:47:03;;;;;;;8.68;2.17;;;15.70;99.90;;;;;;5103071;27;37651;-57
2022/09/14 04:49:30;;;;;;;6.15;2.25;;;15.70;99.90;;;;;;5100724;27;37630;-58
2022/09/14 04:51:57;;;;;;;6.60;2.25;;;15.70;99.90;;;;;;5100322;27;36975;-58
2022/09/14 04:54:25;;;;;;;6.10;2.13;;;15.70;99.90;;;;;;5103255;27;38618;-57
2022/09/14 04:56:52;;;;;;;5.05;1.65;;;15.70;99.90;;;;;;5101573;27;36612;-57
2022/09/14 04:59:19;;;;;;;7.18;2.53;;;15.70;99.90;;;;;;5101002;27;36611;-58
2022/09/14 05:01:49;;;;;;;4.93;1.52;;;15.70;99.90;;;;;;5103967;27;37650;-61
2022/09/14 05:04:16;;;;;;;7.05;2.05;;;15.70;99.90;;;;;;5103480;27;38520;-58
2022/09/14 05:06:44;;;;;;;6.80;2.17;;;15.70;99.90;;;;;;5103991;27;37536;-58
2022/09/14 05:09:14;;;;;;;6.75;2.20;;;15.70;99.90;;;;;;5105699;27;35389;-57
2022/09/14 05:11:41;;;;;;;5.03;1.63;;;15.70;99.90;;;;;;5103499;27;38063;-58
2022/09/14 05:14:11;;;;;;;6.63;1.90;;;15.70;99.90;;;;;;5105439;27;38033;-57
2022/09/14 05:16:40;;;;;;;6.40;1.58;;;15.70;99.90;;;;;;5104606;27;37597;-57
2022/09/14 05:19:13;;;;;;;7.25;1.80;;;15.70;99.90;;;;;;5105008;27;36798;-57
2022/09/14 05:21:40;;;;;;;6.50;2.00;;;15.70;99.90;;;;;;5103059;27;36306;-57
2022/09/14 05:24:13;;;;;;;6.32;2.03;;;15.70;99.90;;;;;;5104165;27;40391;-58
2022/09/14 05:26:42;;;;;;;5.60;1.90;;;15.70;99.90;;;;;;5104611;27;37628;-58
2022/09/14 05:29:12;;;;;;;6.57;1.75;;;15.70;99.90;;;;;;5103709;27;36524;-58
2022/09/14 05:31:40;;;;;;;5.20;1.60;;;15.70;99.90;;;;;;5102903;27;37511;-57
2022/09/14 05:34:09;;;;;;;4.43;1.60;;;15.70;99.90;;;;;;5103850;27;38723;-57
2022/09/14 05:36:36;;;;;;;6.90;2.25;;;15.70;99.90;;;;;;5104178;27;37555;-58
2022/09/14 05:39:04;;;;;;;5.28;1.52;;;15.70;99.90;;;;;;5104436;27;37764;-57
2022/09/14 05:41:31;;;;;;;5.05;1.77;;;15.70;99.90;;;;;;5102190;27;38801;-57
2022/09/14 05:43:59;;;;;;;3.97;1.27;;;15.70;99.90;;;;;;5104856;27;37763;-58
2022/09/14 05:46:27;;;;;;;3.92;1.40;;;15.70;99.90;;;;;;5102224;27;37616;-57
2022/09/14 05:48:54;;;;;;;4.63;1.58;;;15.70;99.90;;;;;;5103556;27;38027;-57
2022/09/14 05:51:25;;;;;;;5.97;1.77;;;15.70;99.90;;;;;;5103888;27;40510;-57
2022/09/14 05:53:53;;;;;;;6.60;1.95;;;15.70;99.90;;;;;;5103868;27;38620;-57
2022/09/14 05:56:22;;;;;;;4.35;1.70;;;15.70;99.90;;;;;;5103477;27;39953;-58
2022/09/14 05:58:50;;;;;;;6.03;1.90;;;15.70;99.90;;;;;;5066046;27;1091788;-57
2022/09/14 06:01:19;;;;;;;6.38;1.90;;;15.70;99.90;;;;;;5104623;27;37554;-58
2022/09/14 06:03:48;;;;;;;4.68;1.70;;;15.70;99.90;;;;;;5103878;27;38264;-57
2022/09/14 06:06:17;;;;;;;4.65;1.95;;;15.70;99.90;;;;;;5103788;27;37745;-57
2022/09/14 06:08:48;;;;;;;5.13;1.80;;;15.70;99.90;;;;;;5104587;27;35395;-57
2022/09/14 06:11:18;;;;;;;6.32;1.77;;;15.70;99.90;;;;;;5103785;27;37355;-57
2022/09/14 06:13:46;;;;;;;5.07;1.85;;;15.80;99.90;;;;;;5104362;27;39512;-57
2022/09/14 06:16:16;;;;;;;6.85;1.60;;;15.80;99.90;;;;;;5104725;27;37781;-57
2022/09/14 06:18:44;;;;;;;4.70;1.40;;;15.80;99.90;;;;;;5104028;27;38260;-58
2022/09/14 06:21:14;;;;;;;5.47;1.60;;;15.90;99.90;;;;;;5103284;27;36632;-57
2022/09/14 06:23:41;;;;;;;3.53;1.15;;;15.90;99.90;;;;;;5103536;27;38158;-57
2022/09/14 06:26:10;;;;;;;13.60;2.50;;;15.90;99.90;;;;;;5103836;27;38638;-58
2022/09/14 06:28:38;;;;;;;8.23;1.65;;;16.00;99.90;;;;;;5103492;27;38778;-57
2022/09/14 06:31:08;;;;;;;6.18;1.50;;;16.00;99.90;;;;;;5104124;27;38230;-58
2022/09/14 06:33:36;;;;;;;6.80;1.67;;;16.00;99.90;;;;;;5103676;27;37114;-58
2022/09/14 06:36:08;;;;;;;7.47;1.85;;;16.00;99.90;;;;;;5104900;27;39051;-58
2022/09/14 06:38:35;;;;;;;4.05;1.73;;;16.10;99.90;;;;;;5105279;27;35391;-57
2022/09/14 06:41:05;;;;;;;4.93;2.00;;;16.10;99.90;;;;;;5104726;27;38010;-57
2022/09/14 06:43:37;;;;;;;8.02;1.95;;;16.10;99.90;;;;;;5104476;27;36931;-58
2022/09/14 06:46:07;;;;;;;4.25;1.60;;;16.10;99.90;;;;;;5102730;27;37518;-58
2022/09/14 06:48:39;;;;;;;7.00;2.05;;;16.20;99.90;;;;;;5104178;27;36688;-57
2022/09/14 06:51:15;;;;;;;6.10;2.47;;;16.20;99.90;;;;;;5102898;27;37744;-57
2022/09/14 06:53:43;;;;;;;7.88;3.03;;;16.20;99.90;;;;;;5103147;27;39614;-57
2022/09/14 06:56:10;;;;;;;5.90;2.42;;;16.30;99.90;;;;;;5103835;27;36616;-57
2022/09/14 06:58:39;;;;;;;6.32;1.92;;;16.30;99.90;;;;;;5105014;27;36932;-57
2022/09/14 07:01:10;;;;;;;6.28;2.13;;;16.30;99.90;;;;;;5104001;27;36306;-58
2022/09/14 07:03:38;;;;;;;5.00;1.80;;;16.40;99.90;;;;;;5104771;27;38465;-57
2022/09/14 07:06:08;;;;;;;5.05;1.90;;;16.40;99.90;;;;;;5103789;27;37853;-58
2022/09/14 07:08:36;;;;;;;5.00;1.77;;;16.40;99.90;;;;;;5104700;27;36483;-57
2022/09/14 07:11:05;;;;;;;6.18;2.33;;;16.40;99.90;;;;;;5103490;27;37351;-57
2022/09/14 07:13:32;;;;;;;7.45;2.60;;;16.50;99.90;;;;;;5104787;27;37770;-58
2022/09/14 07:16:02;;;;;;;5.82;2.60;;;16.50;99.90;;;;;;5103672;27;37623;-58
2022/09/14 07:18:31;;;;;;;6.78;1.90;;;16.50;99.90;;;;;;5102854;27;35457;-58
2022/09/14 07:21:02;;;;;;;9.55;2.17;;;16.60;99.90;;;;;;5099285;27;37489;-58
2022/09/14 07:23:30;;;;;;;7.45;1.98;;;16.60;99.90;;;;;;5103072;27;38536;-57
2022/09/14 07:26:02;;;;;;;6.20;1.80;;;16.60;99.90;;;;;;5102154;27;39448;-58
2022/09/14 07:28:29;;;;;;;5.05;1.88;;;16.70;99.90;;;;;;5103584;27;35391;-58
2022/09/14 07:30:57;;;;;;;5.68;1.95;;;16.70;99.90;;;;;;5100940;27;37251;-58
2022/09/14 07:33:26;;;;;;;9.75;2.13;;;16.70;99.90;;;;;;5103580;27;36761;-58
2022/09/14 07:35:53;;;;;;;7.60;2.10;;;16.80;99.90;;;;;;5103556;27;36668;-58
2022/09/14 07:38:21;;;;;;;5.95;2.00;;;16.80;99.90;;;;;;5104429;27;37466;-58
2022/09/14 07:40:48;;;;;;;6.00;2.25;;;16.80;99.90;;;;;;5102583;27;37488;-57
2022/09/14 07:43:15;;;;;;;5.60;1.77;;;16.80;99.90;;;;;;5103919;27;38239;-58
2022/09/14 07:45:43;;;;;;;6.80;1.70;;;16.80;99.90;;;;;;5102552;27;37224;-58
2022/09/14 07:48:10;;;;;;;7.30;2.08;;;16.90;99.90;;;;;;5103749;27;36631;-58
2022/09/14 07:50:39;;;;;;;5.03;1.73;;;16.90;99.90;;;;;;5101178;27;37151;-57
2022/09/14 07:53:06;;;;;;;8.43;2.38;;;17.00;99.90;;;;;;5103724;27;36940;-58
2022/09/14 07:55:34;;;;;;;6.75;1.73;;;17.00;99.90;;;;;;5102361;27;40080;-58
2022/09/14 07:58:01;;;;;;;6.82;1.80;;;17.00;99.90;;;;;;5102507;27;36429;-58
2022/09/14 08:00:29;;;;;;;6.00;1.77;;;17.00;99.90;;;;;;5103766;27;38249;-58
2022/09/14 08:02:57;;;;;;;5.72;1.40;;;17.10;99.90;;;;;;5103490;27;37452;-58
2022/09/14 08:05:24;;;;;;;7.85;1.60;;;17.10;99.90;;;;;;5102128;27;37628;-58
2022/09/14 08:07:56;;;;;;;4.13;1.48;;;17.10;99.90;;;;;;5103319;27;36728;-58
2022/09/14 08:10:25;;;;;;;8.38;1.35;;;17.20;99.90;;;;;;5102663;27;37950;-58
2022/09/14 08:12:52;;;;;;;8.52;1.67;;;17.20;99.90;;;;;;5103588;27;38536;-58
2022/09/14 08:15:20;;;;;;;7.25;1.27;;;17.20;99.90;;;;;;5102777;27;36656;-57
2022/09/14 08:17:48;;;;;;;5.28;1.30;;;17.30;99.90;;;;;;5102781;27;36784;-58
2022/09/14 08:20:16;;;;;;;5.32;1.30;;;17.30;99.90;;;;;;5101846;27;37651;-57
2022/09/14 08:22:44;;;;;;;6.88;1.55;;;17.30;99.90;;;;;;5102062;27;38043;-58
2022/09/14 08:25:12;;;;;;;7.32;1.45;;;17.30;99.90;;;;;;5101766;27;38919;-58
2022/09/14 08:27:40;;;;;;;7.63;1.55;;;17.30;99.90;;;;;;5102456;27;38377;-58
2022/09/14 08:30:09;;;;;;;4.85;1.30;;;17.40;99.90;;;;;;5100568;27;37678;-58
2022/09/14 08:32:36;;;;;;;9.50;1.27;;;17.40;99.90;;;;;;5101216;27;37171;-58
2022/09/14 08:35:04;;;;;;;4.70;1.10;;;17.40;99.90;;;;;;5100897;27;37924;-57
2022/09/14 08:37:31;;;;;;;7.55;1.75;;;17.50;99.90;;;;;;5099183;27;36894;-58
2022/09/14 08:39:58;;;;;;;4.90;1.10;;;17.50;99.90;;;;;;5100640;27;36289;-58
2022/09/14 08:42:27;;;;;;;5.60;1.00;;;17.60;99.90;;;;;;5100006;27;39340;-58
2022/09/14 08:44:58;;;;;;;4.97;1.00;;;17.70;99.90;;;;;;5101027;27;38255;-58
2022/09/14 08:47:28;;;;;;;6.15;0.98;;;17.70;99.90;;;;;;5099913;27;36425;-57
2022/09/14 08:50:01;;;;;;;6.03;1.20;;;17.80;99.90;;;;;;5099621;27;38099;-58
2022/09/14 08:52:32;;;;;;;10.73;1.80;;;17.90;99.90;;;;;;5100313;27;38933;-58
2022/09/14 08:55:02;;;;;;;10.18;1.42;;;17.90;99.90;;;;;;5100682;27;39071;-58
2022/09/14 08:57:39;;;;;;;8.80;1.33;;;17.90;99.90;;;;;;5099940;27;36815;-58
2022/09/14 09:00:11;;;;;;;6.93;1.38;;;18.10;99.90;;;;;;5100365;27;38710;-58
2022/09/14 09:03:00;;;;;;;6.90;0.80;;;18.20;99.90;;;;;;5099382;27;39405;-58
2022/09/14 09:05:40;;;;;;;5.97;1.20;;;18.30;99.90;;;;;;5103191;27;37922;-58
2022/09/14 09:08:17;;;;;;;10.50;1.70;;;18.40;99.90;;;;;;5102031;27;36717;-58
2022/09/14 09:10:46;;;;;;;8.15;1.40;;;18.50;99.90;;;;;;5100761;27;36375;-58
2022/09/14 09:13:18;;;;;;;9.32;1.55;;;18.50;99.90;;;;;;5101113;27;39652;-58
2022/09/14 09:15:49;;;;;;;6.40;1.13;;;18.50;99.90;;;;;;5099526;27;37724;-58
2022/09/14 09:18:22;;;;;;;8.45;1.27;;;18.40;99.90;;;;;;5101992;27;37623;-62
2022/09/14 09:20:52;;;;;;;5.15;0.98;;;18.40;99.70;;;;;;5100865;27;36276;-60
2022/09/14 09:23:21;;;;;;;6.57;1.08;;;18.30;99.70;;;;;;5101233;27;38217;-60
2022/09/14 09:25:56;;;;;;;4.97;0.98;;;18.30;99.90;;;;;;5102336;27;38091;-60
2022/09/14 09:28:27;;;;;;;5.25;0.70;;;18.40;99.90;;;;;;5101397;27;37685;-60
2022/09/14 09:30:57;;;;;;;4.97;0.95;;;18.40;99.90;;;;;;5099449;27;38551;-60
2022/09/14 09:33:27;;;;;;;4.38;1.02;;;18.40;99.70;;;;;;5101108;27;36961;-60
2022/09/14 09:35:55;;;;;;;5.72;1.00;;;18.50;99.90;;;;;;5100226;27;37762;-60
2022/09/14 09:38:24;;;;;;;7.30;1.02;;;18.50;99.90;;;;;;5102255;27;36573;-61
2022/09/14 09:40:56;;;;;;;6.07;1.27;;;18.50;99.80;;;;;;5102712;27;37402;-60
2022/09/14 09:43:25;;;;;;;6.15;0.90;;;18.60;99.70;;;;;;5103747;27;38184;-61
2022/09/14 09:45:57;;;;;;;7.65;1.38;;;18.50;99.60;;;;;;5102667;27;37480;-60
2022/09/14 09:48:29;;;;;;;7.10;1.08;;;18.50;99.60;;;;;;5104196;27;35500;-60
2022/09/14 09:51:09;;;;;;;7.32;1.00;;;18.50;99.50;;;;;;5105508;27;37617;-60
2022/09/14 09:53:45;;;;;;;6.07;1.08;;;18.50;99.00;;;;;;5103432;27;36760;-60
2022/09/14 09:56:19;;;;;;;5.72;1.13;;;18.50;99.20;;;;;;5105794;27;38947;-61
2022/09/14 09:58:50;;;;;;;10.30;1.63;;;18.50;98.90;;;;;;5104855;27;37085;-60
2022/09/14 10:01:26;;;;;;;7.15;1.00;;;18.50;98.90;;;;;;5105246;27;36148;-61
2022/09/14 10:04:06;;;;;;;5.13;0.88;;;18.50;98.60;;;;;;5105724;27;38430;-61
2022/09/14 10:06:42;;;;;;;5.75;0.73;;;18.50;98.50;;;;;;5106180;27;37766;-61
2022/09/14 10:09:14;;;;;;;7.28;1.20;;;18.50;98.60;;;;;;5106081;27;36530;-60
2022/09/14 10:11:41;;;;;;;6.20;1.35;;;18.50;98.30;;;;;;5104954;27;37639;-58
2022/09/14 10:14:23;;;;;;;8.27;1.60;;;18.60;97.90;;;;;;5101909;27;38796;-57
2022/09/14 10:16:51;;;;;;;9.10;1.35;;;18.60;97.70;;;;;;5103104;27;36608;-58
2022/09/14 10:19:23;;;;;;;5.63;1.13;;;18.60;98.40;;;;;;5103500;27;38931;-57
2022/09/14 10:22:18;;;;;;;4.63;0.77;;;18.70;98.40;;;;;;5102208;27;36401;-57
2022/09/14 10:24:58;;;;;;;5.30;1.02;;;18.70;98.30;;;;;;5103565;27;37988;-59
2022/09/14 10:27:38;;;;;;;7.07;1.10;;;18.80;98.40;;;;;;5103706;27;37848;-58
2022/09/14 10:30:13;;;;;;;4.85;0.75;;;18.80;98.20;;;;;;5101475;27;37012;-57
2022/09/14 10:32:43;;;;;;;5.47;0.95;;;18.80;97.90;;;;;;5103781;27;38975;-57
2022/09/14 10:35:15;;;;;;;8.05;1.35;;;18.80;98.20;;;;;;5103833;27;36817;-57
2022/09/14 10:38:07;;;;;;;6.70;1.30;;;18.80;97.90;;;;;;5103996;27;37929;-58
2022/09/14 10:40:38;;;;;;;8.40;1.42;;;18.80;97.70;;;;;;5103273;27;36445;-58
2022/09/14 10:43:14;;;;;;;7.80;1.30;;;18.80;97.90;;;;;;5101915;27;37919;-57
2022/09/14 10:45:49;;;;;;;7.97;1.80;;;18.80;98.10;;;;;;5102653;27;37860;-58
2022/09/14 10:48:42;;;;;;;10.40;1.75;;;18.90;97.30;;;;;;5103024;27;37594;-58
2022/09/14 10:51:26;;;;;;;7.22;0.93;;;18.90;96.80;;;;;;5100918;27;36265;-58
2022/09/14 10:54:00;;;;;;;6.45;1.15;;;18.90;97.40;;;;;;5103690;27;37729;-58
2022/09/14 10:56:38;;;;;;;5.85;0.85;;;18.90;97.20;;;;;;5102863;27;38212;-58
2022/09/14 10:59:21;;;;;;;3.72;0.90;;;18.80;97.00;;;;;;5101596;27;37986;-58
2022/09/14 11:02:28;;;;;;;7.70;1.70;;;18.90;96.50;;;;;;5103306;27;36580;-58
2022/09/14 11:05:09;;;;;;;4.53;1.20;;;18.80;96.60;;;;;;5103538;27;38016;-58
2022/09/14 11:07:47;;;;;;;6.93;0.90;;;18.90;97.20;;;;;;5102765;27;38834;-58
2022/09/14 11:10:21;;;;;;;4.38;1.00;;;19.00;96.70;;;;;;5101494;27;38237;-58
2022/09/14 11:13:07;;;;;;;4.28;1.05;;;19.00;96.40;;;;;;5102611;27;38168;-58
2022/09/14 11:15:43;;;;;;;7.47;1.30;;;19.10;95.80;;;;;;5102620;27;36432;-58
2022/09/14 11:18:21;;;;;;;7.78;1.13;;;19.30;95.60;;;;;;5103274;27;38283;-58
2022/09/14 11:21:01;;;;;;;9.18;1.55;;;19.40;95.30;;;;;;5103192;27;38173;-58
2022/09/14 11:23:40;;;;;;;4.65;0.90;;;19.50;95.60;;;;;;5103426;27;36426;-58
2022/09/14 11:26:13;;;;;;;8.52;1.10;;;19.60;95.70;;;;;;5102484;27;36410;-58
2022/09/14 11:28:44;;;;;;;6.22;1.73;;;19.70;95.10;;;;;;5101557;27;38069;-58
2022/09/14 11:31:18;;;;;;;5.53;1.42;;;19.70;95.30;;;;;;5102233;27;36452;-58
2022/09/14 11:33:52;;;;;;;3.70;0.90;;;19.90;94.90;;;;;;5102258;27;35376;-58
2022/09/14 11:36:23;;;;;;;6.32;1.05;;;20.10;94.40;;;;;;5102851;27;38360;-58
2022/09/14 11:38:55;;;;;;;7.00;1.30;;;20.20;93.40;;;;;;5101954;27;38240;-58
2022/09/14 11:41:26;;;;;;;5.00;0.82;;;20.20;93.50;;;;;;5102308;27;37732;-58
2022/09/14 11:43:57;;;;;;;5.20;0.75;;;20.20;92.90;;;;;;5101724;27;36590;-58
2022/09/14 11:46:31;;;;;;;8.02;1.58;;;20.20;92.70;;;;;;5103152;27;37598;-58
2022/09/14 11:49:03;;;;;;;;;;;20.30;92.90;;;;;;5102904;27;38343;-58
2022/09/14 11:51:36;;;;;;;5.13;0.77;;;20.30;93.70;;;;;;5091893;27;38038;-58
2022/09/14 11:54:11;;;;;;;5.68;1.42;;;20.40;93.00;;;;;;5097055;27;37582;-58
2022/09/14 11:56:39;;;;;;;6.63;1.02;;;20.40;92.60;;;;;;5098582;27;37836;-58
2022/09/14 11:59:07;;;;;;;5.75;1.48;;;20.50;92.60;;;;;;5099905;27;39108;-58
2022/09/14 12:01:36;;;;;;;6.80;1.00;;;20.40;92.30;;;;;;5099895;27;38139;-58
2022/09/14 12:04:11;;;;;;;8.70;1.58;;;20.40;91.70;;;;;;5098803;27;36945;-57
2022/09/14 12:06:45;;;;;;;6.10;1.15;;;20.30;91.50;;;;;;5098281;27;37730;-58
2022/09/14 12:09:42;;;;;;;7.85;1.13;;;20.20;92.00;;;;;;5098690;27;39180;-58
2022/09/14 12:12:30;;;;;;;9.43;2.13;;;20.10;91.50;;;;;;5098729;27;38491;-58
2022/09/14 12:15:01;;;;;;;3.85;1.08;;;20.00;91.40;;;;;;5099004;27;38883;-58
2022/09/14 12:17:32;;;;;;;4.80;0.93;;;20.00;92.00;;;;;;5098968;27;38318;-58
2022/09/14 12:20:35;;;;;;;7.80;1.40;;;19.90;92.00;;;;;;5098285;27;36480;-58
2022/09/14 12:23:06;;;;;;;5.28;0.98;;;19.90;91.90;;;;;;5095264;27;37855;-58
2022/09/14 12:25:34;;;;;;;6.93;1.23;;;19.80;92.20;;;;;;5098878;27;36547;-58
2022/09/14 12:28:02;;;;;;;6.30;1.10;;;19.70;92.30;;;;;;5098357;27;37422;-58
2022/09/14 12:31:10;;;;;;;5.22;1.10;;;19.60;92.40;;;;;;5097526;27;38199;-58
2022/09/14 12:34:04;;;;;;;3.17;0.93;;;19.60;92.70;;;;;;5099375;27;38242;-58
2022/09/14 12:37:02;;;;;;;7.88;1.75;;;19.60;92.50;;;;;;5100635;27;36698;-58
2022/09/14 12:39:31;;;;;;;9.75;1.73;;;19.60;92.90;;;;;;5099728;27;37360;-58
2022/09/14 12:42:04;;;;;;;10.57;1.70;;;19.60;93.10;;;;;;5099767;27;38110;-58
2022/09/14 12:44:37;;;;;;;10.93;1.40;;;19.60;93.40;;;;;;5099124;27;38053;-58
2022/09/14 12:47:39;;;;;;;4.05;0.77;;;19.60;93.00;;;;;;5098661;27;37334;-58
2022/09/14 12:50:14;;;;;;;3.25;0.70;;;19.70;93.10;;;;;;5096595;27;36695;-58
2022/09/14 12:52:51;;;;;;;5.70;1.23;;;19.70;92.90;;;;;;5096525;27;38526;-58
2022/09/14 12:55:36;;;;;;;4.13;1.05;;;19.80;92.60;;;;;;5098837;27;38685;-58
2022/09/14 12:58:10;;;;;;;4.80;1.00;;;19.80;92.20;;;;;;5099786;27;38771;-58
2022/09/14 13:00:52;;;;;;;4.25;0.90;;;19.70;92.00;;;;;;5099598;27;38038;-58
2022/09/14 13:03:35;;;;;;;4.13;0.90;;;19.70;92.40;;;;;;5098859;27;37699;-58
2022/09/14 13:06:02;;;;;;;6.43;1.00;;;19.70;92.60;;;;;;5098641;27;37610;-58
2022/09/14 13:08:33;;;;;;;5.07;1.10;;;19.70;92.40;;;;;;5099116;27;36651;-58
2022/09/14 13:11:00;;;;;;;6.03;1.27;;;19.60;92.20;;;;;;5098271;27;36544;-58